Turton, South Dakota
Current Conditions -  °F | °C
As of 2:53 AM on Friday 28 Nov 2014 (Local Time) from KABR Reporting Station
Clear Clear  
Wind Chill:   Ceiling: Unl
Heat Index: 10°   Visibility: 10mi
Dew Point:   Wind: 5mph
Humidity: 84%   Direction: 60°ENE
Pressure: 29.9"   Gusts: NA
Location:  45.05°N, 98.1°W
Report Text: KABR 280853Z AUTO 06004KT 10SM CLR M12/M14 A2990 RMK AO2 SLP151 T11221144 55020 $
Loading
Personal Weather Stations






























Interactive Weather Map New forecast layout! Learn more

10-Day Weather Forecast

Advertisements
Track Severe Weather on mobile